sensor_id;sensor_type;location;lat;lon;timestamp;temperature;humidity
10848;DHT22;5477;48.806;9.154;2023-04-24T00:01:05;11.40;99.90
10848;DHT22;5477;48.806;9.154;2023-04-24T00:03:34;11.40;99.90
10848;DHT22;5477;48.806;9.154;2023-04-24T00:06:03;11.40;99.90
10848;DHT22;5477;48.806;9.154;2023-04-24T00:08:32;11.40;99.90
10848;DHT22;5477;48.806;9.154;2023-04-24T00:10:59;11.50;99.90
10848;DHT22;5477;48.806;9.154;2023-04-24T00:13:29;11.50;99.90
10848;DHT22;5477;48.806;9.154;2023-04-24T00:15:57;11.60;99.90
10848;DHT22;5477;48.806;9.154;2023-04-24T00:18:25;11.60;99.90
10848;DHT22;5477;48.806;9.154;2023-04-24T00:20:52;11.60;99.90
10848;DHT22;5477;48.806;9.154;2023-04-24T00:23:20;11.60;99.90
10848;DHT22;5477;48.806;9.154;2023-04-24T00:25:48;11.60;99.90
10848;DHT22;5477;48.806;9.154;2023-04-24T00:28:16;11.60;99.90
10848;DHT22;5477;48.806;9.154;2023-04-24T00:30:46;11.60;99.90
10848;DHT22;5477;48.806;9.154;2023-04-24T00:33:13;11.60;99.90
10848;DHT22;5477;48.806;9.154;2023-04-24T00:35:41;11.70;99.90
10848;DHT22;5477;48.806;9.154;2023-04-24T00:38:10;11.70;99.90
10848;DHT22;5477;48.806;9.154;2023-04-24T00:40:38;11.70;99.90
10848;DHT22;5477;48.806;9.154;2023-04-24T00:43:06;11.80;99.90
10848;DHT22;5477;48.806;9.154;2023-04-24T00:45:36;11.80;99.90
10848;DHT22;5477;48.806;9.154;2023-04-24T00:48:06;11.80;99.90
10848;DHT22;5477;48.806;9.154;2023-04-24T00:50:36;11.80;99.90
10848;DHT22;5477;48.806;9.154;2023-04-24T00:53:04;11.80;99.90
10848;DHT22;5477;48.806;9.154;2023-04-24T00:55:32;11.80;99.90
10848;DHT22;5477;48.806;9.154;2023-04-24T00:58:00;11.80;99.90
10848;DHT22;5477;48.806;9.154;2023-04-24T01:00:28;11.90;99.90
10848;DHT22;5477;48.806;9.154;2023-04-24T01:02:58;11.80;99.90
10848;DHT22;5477;48.806;9.154;2023-04-24T01:05:28;11.80;99.90
10848;DHT22;5477;48.806;9.154;2023-04-24T01:07:56;11.90;99.90
10848;DHT22;5477;48.806;9.154;2023-04-24T01:10:26;11.90;99.90
10848;DHT22;5477;48.806;9.154;2023-04-24T01:12:55;11.90;99.90
10848;DHT22;5477;48.806;9.154;2023-04-24T01:15:23;11.90;99.90
10848;DHT22;5477;48.806;9.154;2023-04-24T01:17:51;11.90;99.90
10848;DHT22;5477;48.806;9.154;2023-04-24T01:20:20;11.90;99.90
10848;DHT22;5477;48.806;9.154;2023-04-24T01:22:49;11.90;99.90
10848;DHT22;5477;48.806;9.154;2023-04-24T01:25:17;11.90;99.90
10848;DHT22;5477;48.806;9.154;2023-04-24T01:27:45;11.90;99.90
10848;DHT22;5477;48.806;9.154;2023-04-24T01:30:14;11.90;99.90
10848;DHT22;5477;48.806;9.154;2023-04-24T01:32:42;11.90;99.90
10848;DHT22;5477;48.806;9.154;2023-04-24T01:35:12;11.80;99.90
10848;DHT22;5477;48.806;9.154;2023-04-24T01:37:40;11.80;99.90
10848;DHT22;5477;48.806;9.154;2023-04-24T01:40:10;11.70;99.90
10848;DHT22;5477;48.806;9.154;2023-04-24T01:42:38;11.70;99.90
10848;DHT22;5477;48.806;9.154;2023-04-24T01:45:10;11.70;99.90
10848;DHT22;5477;48.806;9.154;2023-04-24T01:47:39;11.60;99.90
10848;DHT22;5477;48.806;9.154;2023-04-24T01:50:08;11.70;99.90
10848;DHT22;5477;48.806;9.154;2023-04-24T01:52:38;11.60;99.90
10848;DHT22;5477;48.806;9.154;2023-04-24T01:55:10;11.60;99.90
10848;DHT22;5477;48.806;9.154;2023-04-24T01:57:39;11.60;99.90
10848;DHT22;5477;48.806;9.154;2023-04-24T02:00:08;11.60;99.90
10848;DHT22;5477;48.806;9.154;2023-04-24T02:02:41;11.60;99.90
10848;DHT22;5477;48.806;9.154;2023-04-24T02:05:14;11.60;99.90
10848;DHT22;5477;48.806;9.154;2023-04-24T02:07:41;11.60;99.90
10848;DHT22;5477;48.806;9.154;2023-04-24T02:10:11;11.50;99.90
10848;DHT22;5477;48.806;9.154;2023-04-24T02:12:42;11.50;99.90
10848;DHT22;5477;48.806;9.154;2023-04-24T02:15:10;11.50;99.90
10848;DHT22;5477;48.806;9.154;2023-04-24T02:17:39;11.40;99.90
10848;DHT22;5477;48.806;9.154;2023-04-24T02:20:07;11.40;99.90
10848;DHT22;5477;48.806;9.154;2023-04-24T02:22:37;11.40;99.90
10848;DHT22;5477;48.806;9.154;2023-04-24T02:25:06;11.40;99.90
10848;DHT22;5477;48.806;9.154;2023-04-24T02:27:36;11.40;99.90
10848;DHT22;5477;48.806;9.154;2023-04-24T02:30:06;11.40;99.90
10848;DHT22;5477;48.806;9.154;2023-04-24T02:32:34;11.50;99.90
10848;DHT22;5477;48.806;9.154;2023-04-24T02:35:03;11.50;99.90
10848;DHT22;5477;48.806;9.154;2023-04-24T02:37:31;11.50;99.90
10848;DHT22;5477;48.806;9.154;2023-04-24T02:39:59;11.60;99.90
10848;DHT22;5477;48.806;9.154;2023-04-24T02:42:27;11.60;99.90
10848;DHT22;5477;48.806;9.154;2023-04-24T02:44:58;11.60;99.90
10848;DHT22;5477;48.806;9.154;2023-04-24T02:47:26;11.60;99.90
10848;DHT22;5477;48.806;9.154;2023-04-24T02:49:54;11.50;99.90
10848;DHT22;5477;48.806;9.154;2023-04-24T02:52:22;11.40;99.90
10848;DHT22;5477;48.806;9.154;2023-04-24T02:54:49;11.20;99.90
10848;DHT22;5477;48.806;9.154;2023-04-24T02:57:17;11.10;99.90
10848;DHT22;5477;48.806;9.154;2023-04-24T02:59:45;11.10;99.90
10848;DHT22;5477;48.806;9.154;2023-04-24T03:02:15;11.00;99.90
10848;DHT22;5477;48.806;9.154;2023-04-24T03:04:43;11.00;99.90
10848;DHT22;5477;48.806;9.154;2023-04-24T03:07:11;10.90;99.90
10848;DHT22;5477;48.806;9.154;2023-04-24T03:09:39;10.90;99.90
10848;DHT22;5477;48.806;9.154;2023-04-24T03:12:08;10.90;99.90
10848;DHT22;5477;48.806;9.154;2023-04-24T03:14:35;10.80;99.90
10848;DHT22;5477;48.806;9.154;2023-04-24T03:17:03;10.70;99.90
10848;DHT22;5477;48.806;9.154;2023-04-24T03:19:33;10.70;99.90
10848;DHT22;5477;48.806;9.154;2023-04-24T03:22:07;10.60;99.90
10848;DHT22;5477;48.806;9.154;2023-04-24T03:24:36;10.60;99.90
10848;DHT22;5477;48.806;9.154;2023-04-24T03:27:04;10.50;99.90
10848;DHT22;5477;48.806;9.154;2023-04-24T03:29:49;10.50;99.90
10848;DHT22;5477;48.806;9.154;2023-04-24T03:32:21;10.50;99.90
10848;DHT22;5477;48.806;9.154;2023-04-24T03:34:51;10.50;99.90
10848;DHT22;5477;48.806;9.154;2023-04-24T03:37:20;10.50;99.90
10848;DHT22;5477;48.806;9.154;2023-04-24T03:39:57;10.50;99.90
10848;DHT22;5477;48.806;9.154;2023-04-24T03:42:26;10.50;99.90
10848;DHT22;5477;48.806;9.154;2023-04-24T03:44:55;10.40;99.90
10848;DHT22;5477;48.806;9.154;2023-04-24T03:47:29;10.30;99.90
10848;DHT22;5477;48.806;9.154;2023-04-24T03:50:02;10.40;99.90
10848;DHT22;5477;48.806;9.154;2023-04-24T03:52:32;10.30;99.90
10848;DHT22;5477;48.806;9.154;2023-04-24T03:55:00;10.30;99.90
10848;DHT22;5477;48.806;9.154;2023-04-24T03:57:30;10.30;99.90
10848;DHT22;5477;48.806;9.154;2023-04-24T04:00:10;10.30;99.90
10848;DHT22;5477;48.806;9.154;2023-04-24T04:02:47;10.30;99.90
10848;DHT22;5477;48.806;9.154;2023-04-24T04:05:16;10.40;99.90
10848;DHT22;5477;48.806;9.154;2023-04-24T04:07:44;10.40;99.90
10848;DHT22;5477;48.806;9.154;2023-04-24T04:10:12;10.40;99.90
10848;DHT22;5477;48.806;9.154;2023-04-24T04:12:41;10.40;99.90
10848;DHT22;5477;48.806;9.154;2023-04-24T04:15:09;10.40;99.90
10848;DHT22;5477;48.806;9.154;2023-04-24T04:17:38;10.40;99.90
10848;DHT22;5477;48.806;9.154;2023-04-24T04:20:07;10.40;99.90
10848;DHT22;5477;48.806;9.154;2023-04-24T04:22:39;10.50;99.90
10848;DHT22;5477;48.806;9.154;2023-04-24T04:25:14;10.50;99.90
10848;DHT22;5477;48.806;9.154;2023-04-24T04:27:42;10.60;99.90
10848;DHT22;5477;48.806;9.154;2023-04-24T04:30:12;10.60;99.90
10848;DHT22;5477;48.806;9.154;2023-04-24T04:32:49;10.60;99.90
10848;DHT22;5477;48.806;9.154;2023-04-24T04:35:18;10.60;99.90
10848;DHT22;5477;48.806;9.154;2023-04-24T04:37:51;10.60;99.90
10848;DHT22;5477;48.806;9.154;2023-04-24T04:40:20;10.60;99.90
10848;DHT22;5477;48.806;9.154;2023-04-24T04:42:54;10.50;99.90
10848;DHT22;5477;48.806;9.154;2023-04-24T04:45:24;10.50;99.90
10848;DHT22;5477;48.806;9.154;2023-04-24T04:48:29;10.40;99.90
10848;DHT22;5477;48.806;9.154;2023-04-24T04:51:00;10.40;99.90
10848;DHT22;5477;48.806;9.154;2023-04-24T04:53:30;10.40;99.90
10848;DHT22;5477;48.806;9.154;2023-04-24T04:55:58;10.40;99.90
10848;DHT22;5477;48.806;9.154;2023-04-24T04:58:33;10.40;99.90
10848;DHT22;5477;48.806;9.154;2023-04-24T05:01:02;10.30;99.90
10848;DHT22;5477;48.806;9.154;2023-04-24T05:03:35;10.20;99.90
10848;DHT22;5477;48.806;9.154;2023-04-24T05:06:07;10.20;99.90
10848;DHT22;5477;48.806;9.154;2023-04-24T05:08:39;10.20;99.90
10848;DHT22;5477;48.806;9.154;2023-04-24T05:11:12;10.20;99.90
10848;DHT22;5477;48.806;9.154;2023-04-24T05:13:41;10.20;99.90
10848;DHT22;5477;48.806;9.154;2023-04-24T05:16:14;10.10;99.90
10848;DHT22;5477;48.806;9.154;2023-04-24T05:18:42;10.20;99.90
10848;DHT22;5477;48.806;9.154;2023-04-24T05:21:13;10.20;99.90
10848;DHT22;5477;48.806;9.154;2023-04-24T05:23:46;10.10;99.90
10848;DHT22;5477;48.806;9.154;2023-04-24T05:26:21;10.20;99.90
10848;DHT22;5477;48.806;9.154;2023-04-24T05:28:49;10.20;99.90
10848;DHT22;5477;48.806;9.154;2023-04-24T05:31:18;10.20;99.90
10848;DHT22;5477;48.806;9.154;2023-04-24T05:33:46;10.20;99.90
10848;DHT22;5477;48.806;9.154;2023-04-24T05:36:14;10.20;99.90
10848;DHT22;5477;48.806;9.154;2023-04-24T05:38:42;10.20;99.90
10848;DHT22;5477;48.806;9.154;2023-04-24T05:41:12;10.20;99.90
10848;DHT22;5477;48.806;9.154;2023-04-24T05:43:41;10.20;99.90
10848;DHT22;5477;48.806;9.154;2023-04-24T05:46:09;10.10;99.90
10848;DHT22;5477;48.806;9.154;2023-04-24T05:48:38;10.10;99.90
10848;DHT22;5477;48.806;9.154;2023-04-24T05:51:06;10.10;99.90
10848;DHT22;5477;48.806;9.154;2023-04-24T05:53:34;10.10;99.90
10848;DHT22;5477;48.806;9.154;2023-04-24T05:56:02;10.20;99.90
10848;DHT22;5477;48.806;9.154;2023-04-24T05:58:32;10.20;99.90
10848;DHT22;5477;48.806;9.154;2023-04-24T06:01:01;10.20;99.90
10848;DHT22;5477;48.806;9.154;2023-04-24T06:03:33;10.20;99.90
10848;DHT22;5477;48.806;9.154;2023-04-24T06:06:03;10.20;99.90
10848;DHT22;5477;48.806;9.154;2023-04-24T06:08:32;10.30;99.90
10848;DHT22;5477;48.806;9.154;2023-04-24T06:11:00;10.20;99.90
10848;DHT22;5477;48.806;9.154;2023-04-24T06:13:32;10.30;99.90
10848;DHT22;5477;48.806;9.154;2023-04-24T06:16:36;10.20;99.90
10848;DHT22;5477;48.806;9.154;2023-04-24T06:19:15;10.20;99.90
10848;DHT22;5477;48.806;9.154;2023-04-24T06:21:43;10.20;99.90
10848;DHT22;5477;48.806;9.154;2023-04-24T06:24:13;10.30;99.90
10848;DHT22;5477;48.806;9.154;2023-04-24T06:26:41;10.40;99.90
10848;DHT22;5477;48.806;9.154;2023-04-24T06:29:10;10.60;99.90
10848;DHT22;5477;48.806;9.154;2023-04-24T06:31:38;10.80;99.90
10848;DHT22;5477;48.806;9.154;2023-04-24T06:34:06;10.90;99.90
10848;DHT22;5477;48.806;9.154;2023-04-24T06:36:34;11.10;99.90
10848;DHT22;5477;48.806;9.154;2023-04-24T06:39:02;11.40;99.90
10848;DHT22;5477;48.806;9.154;2023-04-24T06:41:30;11.50;99.90
10848;DHT22;5477;48.806;9.154;2023-04-24T06:43:58;11.60;99.90
10848;DHT22;5477;48.806;9.154;2023-04-24T06:46:27;11.60;99.90
10848;DHT22;5477;48.806;9.154;2023-04-24T06:48:56;11.60;99.90
10848;DHT22;5477;48.806;9.154;2023-04-24T06:51:24;11.90;99.90
10848;DHT22;5477;48.806;9.154;2023-04-24T06:53:52;12.00;99.90
10848;DHT22;5477;48.806;9.154;2023-04-24T06:56:22;12.10;99.90
10848;DHT22;5477;48.806;9.154;2023-04-24T06:58:50;12.20;99.90
10848;DHT22;5477;48.806;9.154;2023-04-24T07:01:18;12.40;99.90
10848;DHT22;5477;48.806;9.154;2023-04-24T07:03:48;12.60;99.90
10848;DHT22;5477;48.806;9.154;2023-04-24T07:06:16;12.90;99.90
10848;DHT22;5477;48.806;9.154;2023-04-24T07:08:45;13.10;99.90
10848;DHT22;5477;48.806;9.154;2023-04-24T07:11:14;13.00;99.90
10848;DHT22;5477;48.806;9.154;2023-04-24T07:13:42;12.80;99.90
10848;DHT22;5477;48.806;9.154;2023-04-24T07:16:11;12.60;99.90
10848;DHT22;5477;48.806;9.154;2023-04-24T07:18:39;12.40;99.90
10848;DHT22;5477;48.806;9.154;2023-04-24T07:21:08;12.20;99.90
10848;DHT22;5477;48.806;9.154;2023-04-24T07:23:36;12.20;99.90
10848;DHT22;5477;48.806;9.154;2023-04-24T07:26:04;12.10;99.90
10848;DHT22;5477;48.806;9.154;2023-04-24T07:28:32;12.20;99.90
10848;DHT22;5477;48.806;9.154;2023-04-24T07:31:00;12.20;99.90
10848;DHT22;5477;48.806;9.154;2023-04-24T07:33:28;12.10;99.90
10848;DHT22;5477;48.806;9.154;2023-04-24T07:35:56;12.10;99.90
10848;DHT22;5477;48.806;9.154;2023-04-24T07:38:26;12.30;99.90
10848;DHT22;5477;48.806;9.154;2023-04-24T07:40:54;12.60;99.90
10848;DHT22;5477;48.806;9.154;2023-04-24T07:43:22;12.80;99.90
10848;DHT22;5477;48.806;9.154;2023-04-24T07:45:50;12.80;99.90
10848;DHT22;5477;48.806;9.154;2023-04-24T07:48:18;12.90;99.90
10848;DHT22;5477;48.806;9.154;2023-04-24T07:50:48;13.00;99.90
10848;DHT22;5477;48.806;9.154;2023-04-24T07:53:16;12.80;99.90
10848;DHT22;5477;48.806;9.154;2023-04-24T07:55:46;12.50;99.90
10848;DHT22;5477;48.806;9.154;2023-04-24T07:58:13;12.50;99.90
10848;DHT22;5477;48.806;9.154;2023-04-24T08:00:41;12.50;99.90
10848;DHT22;5477;48.806;9.154;2023-04-24T08:03:09;12.60;99.90
10848;DHT22;5477;48.806;9.154;2023-04-24T08:05:39;12.60;99.90
10848;DHT22;5477;48.806;9.154;2023-04-24T08:08:08;12.30;99.90
10848;DHT22;5477;48.806;9.154;2023-04-24T08:10:36;12.20;99.90
10848;DHT22;5477;48.806;9.154;2023-04-24T08:13:06;12.30;99.90
10848;DHT22;5477;48.806;9.154;2023-04-24T08:15:34;12.40;99.90
10848;DHT22;5477;48.806;9.154;2023-04-24T08:18:02;12.50;99.90
10848;DHT22;5477;48.806;9.154;2023-04-24T08:20:30;12.50;99.90
10848;DHT22;5477;48.806;9.154;2023-04-24T08:22:58;12.60;99.90
10848;DHT22;5477;48.806;9.154;2023-04-24T08:25:26;12.60;99.90
10848;DHT22;5477;48.806;9.154;2023-04-24T08:27:54;12.60;99.90
10848;DHT22;5477;48.806;9.154;2023-04-24T08:30:23;12.70;99.90
10848;DHT22;5477;48.806;9.154;2023-04-24T08:32:51;12.70;99.90
10848;DHT22;5477;48.806;9.154;2023-04-24T08:35:19;12.70;99.90
10848;DHT22;5477;48.806;9.154;2023-04-24T08:37:47;12.70;99.90
10848;DHT22;5477;48.806;9.154;2023-04-24T08:40:16;12.70;99.90
10848;DHT22;5477;48.806;9.154;2023-04-24T08:42:45;12.80;99.90
10848;DHT22;5477;48.806;9.154;2023-04-24T08:45:13;12.80;99.90
10848;DHT22;5477;48.806;9.154;2023-04-24T08:47:42;12.90;99.90
10848;DHT22;5477;48.806;9.154;2023-04-24T08:50:12;12.70;99.90
10848;DHT22;5477;48.806;9.154;2023-04-24T08:52:41;12.60;99.90
10848;DHT22;5477;48.806;9.154;2023-04-24T08:55:09;12.50;99.90
10848;DHT22;5477;48.806;9.154;2023-04-24T08:57:37;12.40;99.90
10848;DHT22;5477;48.806;9.154;2023-04-24T09:00:07;12.70;99.90
10848;DHT22;5477;48.806;9.154;2023-04-24T09:02:42;12.70;99.90
10848;DHT22;5477;48.806;9.154;2023-04-24T09:05:12;12.60;99.90
10848;DHT22;5477;48.806;9.154;2023-04-24T09:07:41;12.90;99.90
10848;DHT22;5477;48.806;9.154;2023-04-24T09:10:11;13.00;99.90
10848;DHT22;5477;48.806;9.154;2023-04-24T09:12:40;13.00;99.90
10848;DHT22;5477;48.806;9.154;2023-04-24T09:15:09;12.50;99.90
10848;DHT22;5477;48.806;9.154;2023-04-24T09:17:38;12.30;99.90
10848;DHT22;5477;48.806;9.154;2023-04-24T09:20:08;12.10;99.90
10848;DHT22;5477;48.806;9.154;2023-04-24T09:22:36;11.60;99.90
10848;DHT22;5477;48.806;9.154;2023-04-24T09:25:06;11.20;99.90
10848;DHT22;5477;48.806;9.154;2023-04-24T09:27:34;10.90;99.90
10848;DHT22;5477;48.806;9.154;2023-04-24T09:30:03;10.80;99.90
10848;DHT22;5477;48.806;9.154;2023-04-24T09:32:31;10.80;99.90
10848;DHT22;5477;48.806;9.154;2023-04-24T09:35:08;10.90;99.90
10848;DHT22;5477;48.806;9.154;2023-04-24T09:37:38;11.10;99.90
10848;DHT22;5477;48.806;9.154;2023-04-24T09:40:10;11.30;99.90
10848;DHT22;5477;48.806;9.154;2023-04-24T09:42:40;11.70;99.90
10848;DHT22;5477;48.806;9.154;2023-04-24T09:45:11;12.20;99.90
10848;DHT22;5477;48.806;9.154;2023-04-24T09:47:41;12.50;99.90
10848;DHT22;5477;48.806;9.154;2023-04-24T09:50:13;12.40;99.90
10848;DHT22;5477;48.806;9.154;2023-04-24T09:52:44;12.40;99.90
10848;DHT22;5477;48.806;9.154;2023-04-24T09:55:17;12.40;99.90
10848;DHT22;5477;48.806;9.154;2023-04-24T09:57:49;12.40;99.90
10848;DHT22;5477;48.806;9.154;2023-04-24T10:00:19;12.50;99.90
10848;DHT22;5477;48.806;9.154;2023-04-24T10:02:59;12.40;99.90
10848;DHT22;5477;48.806;9.154;2023-04-24T10:05:31;12.50;99.90
10848;DHT22;5477;48.806;9.154;2023-04-24T10:08:04;12.40;99.90
10848;DHT22;5477;48.806;9.154;2023-04-24T10:10:33;12.50;99.90
10848;DHT22;5477;48.806;9.154;2023-04-24T10:13:01;12.70;99.90
10848;DHT22;5477;48.806;9.154;2023-04-24T10:15:30;13.00;99.90
10848;DHT22;5477;48.806;9.154;2023-04-24T10:17:58;13.30;99.90
10848;DHT22;5477;48.806;9.154;2023-04-24T10:20:29;13.60;99.90
10848;DHT22;5477;48.806;9.154;2023-04-24T10:22:59;14.00;99.90
10848;DHT22;5477;48.806;9.154;2023-04-24T10:25:28;14.20;99.30
10848;DHT22;5477;48.806;9.154;2023-04-24T10:27:58;14.40;98.10
10848;DHT22;5477;48.806;9.154;2023-04-24T10:30:27;14.30;97.50
10848;DHT22;5477;48.806;9.154;2023-04-24T10:32:56;14.00;97.10
10848;DHT22;5477;48.806;9.154;2023-04-24T10:35:24;13.70;97.50
10848;DHT22;5477;48.806;9.154;2023-04-24T10:37:58;13.80;97.70
10848;DHT22;5477;48.806;9.154;2023-04-24T10:40:30;13.80;97.90
10848;DHT22;5477;48.806;9.154;2023-04-24T10:42:59;13.50;97.70
10848;DHT22;5477;48.806;9.154;2023-04-24T10:45:27;13.30;98.30
10848;DHT22;5477;48.806;9.154;2023-04-24T10:47:59;13.10;98.60
10848;DHT22;5477;48.806;9.154;2023-04-24T10:50:42;12.90;99.80
10848;DHT22;5477;48.806;9.154;2023-04-24T10:53:17;12.90;99.90
10848;DHT22;5477;48.806;9.154;2023-04-24T10:55:47;13.00;99.60
10848;DHT22;5477;48.806;9.154;2023-04-24T10:58:16;12.90;99.40
10848;DHT22;5477;48.806;9.154;2023-04-24T11:00:56;12.80;99.70
10848;DHT22;5477;48.806;9.154;2023-04-24T11:03:26;12.90;99.90
10848;DHT22;5477;48.806;9.154;2023-04-24T11:06:00;12.90;99.90
10848;DHT22;5477;48.806;9.154;2023-04-24T11:08:37;12.70;99.90
10848;DHT22;5477;48.806;9.154;2023-04-24T11:11:10;12.50;99.90
10848;DHT22;5477;48.806;9.154;2023-04-24T11:14:00;12.50;99.90
10848;DHT22;5477;48.806;9.154;2023-04-24T11:16:30;12.20;99.90
10848;DHT22;5477;48.806;9.154;2023-04-24T11:19:01;12.20;99.90
10848;DHT22;5477;48.806;9.154;2023-04-24T11:21:39;12.30;99.90
10848;DHT22;5477;48.806;9.154;2023-04-24T11:24:26;12.50;99.90
10848;DHT22;5477;48.806;9.154;2023-04-24T11:26:57;12.80;99.90
10848;DHT22;5477;48.806;9.154;2023-04-24T11:29:39;13.00;99.90
10848;DHT22;5477;48.806;9.154;2023-04-24T11:32:18;13.40;99.80
10848;DHT22;5477;48.806;9.154;2023-04-24T11:34:47;13.90;99.00
10848;DHT22;5477;48.806;9.154;2023-04-24T11:37:16;13.80;98.00
10848;DHT22;5477;48.806;9.154;2023-04-24T11:39:45;13.80;98.80
10848;DHT22;5477;48.806;9.154;2023-04-24T11:42:15;13.70;99.00
10848;DHT22;5477;48.806;9.154;2023-04-24T11:44:43;13.60;98.70
10848;DHT22;5477;48.806;9.154;2023-04-24T11:47:11;13.50;99.50
10848;DHT22;5477;48.806;9.154;2023-04-24T11:49:39;13.10;99.80
10848;DHT22;5477;48.806;9.154;2023-04-24T11:52:07;13.00;99.90
10848;DHT22;5477;48.806;9.154;2023-04-24T11:54:35;12.90;99.90
10848;DHT22;5477;48.806;9.154;2023-04-24T11:57:05;12.70;99.90
10848;DHT22;5477;48.806;9.154;2023-04-24T11:59:37;13.00;99.90
10848;DHT22;5477;48.806;9.154;2023-04-24T12:02:05;13.40;99.90
10848;DHT22;5477;48.806;9.154;2023-04-24T12:04:40;13.90;99.90
10848;DHT22;5477;48.806;9.154;2023-04-24T12:07:09;14.50;99.00
10848;DHT22;5477;48.806;9.154;2023-04-24T12:09:44;14.30;98.60
10848;DHT22;5477;48.806;9.154;2023-04-24T12:12:16;13.90;99.00
10848;DHT22;5477;48.806;9.154;2023-04-24T12:14:47;13.60;99.80
10848;DHT22;5477;48.806;9.154;2023-04-24T12:17:16;13.50;99.90
10848;DHT22;5477;48.806;9.154;2023-04-24T12:19:48;13.40;99.90
10848;DHT22;5477;48.806;9.154;2023-04-24T12:22:17;13.30;99.90
10848;DHT22;5477;48.806;9.154;2023-04-24T12:25:00;13.40;99.90
10848;DHT22;5477;48.806;9.154;2023-04-24T12:27:32;13.40;99.70
10848;DHT22;5477;48.806;9.154;2023-04-24T12:30:02;13.30;99.80
10848;DHT22;5477;48.806;9.154;2023-04-24T12:32:31;13.50;99.90
10848;DHT22;5477;48.806;9.154;2023-04-24T12:34:59;13.40;99.90
10848;DHT22;5477;48.806;9.154;2023-04-24T12:37:33;13.30;99.70
10848;DHT22;5477;48.806;9.154;2023-04-24T12:40:04;13.10;99.90
10848;DHT22;5477;48.806;9.154;2023-04-24T12:42:36;13.10;99.90
10848;DHT22;5477;48.806;9.154;2023-04-24T12:45:09;13.60;99.90
10848;DHT22;5477;48.806;9.154;2023-04-24T12:47:39;14.00;99.20
10848;DHT22;5477;48.806;9.154;2023-04-24T12:50:08;14.10;99.00
10848;DHT22;5477;48.806;9.154;2023-04-24T12:52:37;13.90;98.90
10848;DHT22;5477;48.806;9.154;2023-04-24T12:55:06;13.70;99.10
10848;DHT22;5477;48.806;9.154;2023-04-24T12:57:37;13.50;99.20
10848;DHT22;5477;48.806;9.154;2023-04-24T13:00:08;13.20;99.90
10848;DHT22;5477;48.806;9.154;2023-04-24T13:02:36;12.80;99.90
10848;DHT22;5477;48.806;9.154;2023-04-24T13:05:05;12.10;99.90
10848;DHT22;5477;48.806;9.154;2023-04-24T13:07:33;11.60;99.90
10848;DHT22;5477;48.806;9.154;2023-04-24T13:10:01;11.60;99.90
10848;DHT22;5477;48.806;9.154;2023-04-24T13:12:29;12.00;99.90
10848;DHT22;5477;48.806;9.154;2023-04-24T13:14:59;12.90;99.90
10848;DHT22;5477;48.806;9.154;2023-04-24T13:17:27;13.90;99.90
10848;DHT22;5477;48.806;9.154;2023-04-24T13:19:55;14.40;99.90
10848;DHT22;5477;48.806;9.154;2023-04-24T13:22:23;14.30;99.90
10848;DHT22;5477;48.806;9.154;2023-04-24T13:24:51;14.10;99.90
10848;DHT22;5477;48.806;9.154;2023-04-24T13:27:19;13.70;99.90
10848;DHT22;5477;48.806;9.154;2023-04-24T13:29:47;13.50;99.90
10848;DHT22;5477;48.806;9.154;2023-04-24T13:32:17;13.30;99.90
10848;DHT22;5477;48.806;9.154;2023-04-24T13:34:45;13.20;99.90
10848;DHT22;5477;48.806;9.154;2023-04-24T13:37:13;13.30;99.90
10848;DHT22;5477;48.806;9.154;2023-04-24T13:39:41;13.30;99.90
10848;DHT22;5477;48.806;9.154;2023-04-24T13:42:09;13.10;99.90
10848;DHT22;5477;48.806;9.154;2023-04-24T13:44:37;13.00;99.90
10848;DHT22;5477;48.806;9.154;2023-04-24T13:47:05;12.90;99.90
10848;DHT22;5477;48.806;9.154;2023-04-24T13:49:35;12.90;99.90
10848;DHT22;5477;48.806;9.154;2023-04-24T13:52:03;12.70;99.90
10848;DHT22;5477;48.806;9.154;2023-04-24T13:54:31;12.50;99.90
10848;DHT22;5477;48.806;9.154;2023-04-24T13:56:59;12.90;99.90
10848;DHT22;5477;48.806;9.154;2023-04-24T13:59:27;13.10;99.90
10848;DHT22;5477;48.806;9.154;2023-04-24T14:01:55;13.10;99.90
10848;DHT22;5477;48.806;9.154;2023-04-24T14:04:24;13.60;99.90
10848;DHT22;5477;48.806;9.154;2023-04-24T14:06:53;14.10;99.90
10848;DHT22;5477;48.806;9.154;2023-04-24T14:09:23;14.80;99.90
10848;DHT22;5477;48.806;9.154;2023-04-24T14:11:51;15.40;99.90
10848;DHT22;5477;48.806;9.154;2023-04-24T14:14:19;16.20;99.90
10848;DHT22;5477;48.806;9.154;2023-04-24T14:16:47;17.00;99.90
10848;DHT22;5477;48.806;9.154;2023-04-24T14:19:15;17.10;99.70
10848;DHT22;5477;48.806;9.154;2023-04-24T14:21:43;17.30;98.90
10848;DHT22;5477;48.806;9.154;2023-04-24T14:24:12;18.10;96.90
10848;DHT22;5477;48.806;9.154;2023-04-24T14:26:41;17.40;95.80
10848;DHT22;5477;48.806;9.154;2023-04-24T14:29:09;16.70;97.00
10848;DHT22;5477;48.806;9.154;2023-04-24T14:31:41;17.00;97.00
10848;DHT22;5477;48.806;9.154;2023-04-24T14:34:09;17.70;96.70
10848;DHT22;5477;48.806;9.154;2023-04-24T14:36:37;18.10;95.10
10848;DHT22;5477;48.806;9.154;2023-04-24T14:39:06;17.80;94.70
10848;DHT22;5477;48.806;9.154;2023-04-24T14:41:35;16.60;95.70
10848;DHT22;5477;48.806;9.154;2023-04-24T14:44:05;15.70;97.70
10848;DHT22;5477;48.806;9.154;2023-04-24T14:46:33;15.20;98.60
10848;DHT22;5477;48.806;9.154;2023-04-24T14:49:02;14.70;99.50
10848;DHT22;5477;48.806;9.154;2023-04-24T14:51:29;14.20;99.90
10848;DHT22;5477;48.806;9.154;2023-04-24T14:53:58;14.10;99.90
10848;DHT22;5477;48.806;9.154;2023-04-24T14:56:26;13.80;99.90
10848;DHT22;5477;48.806;9.154;2023-04-24T14:58:55;13.90;99.90
10848;DHT22;5477;48.806;9.154;2023-04-24T15:01:23;14.40;99.90
10848;DHT22;5477;48.806;9.154;2023-04-24T15:03:52;15.60;99.90
10848;DHT22;5477;48.806;9.154;2023-04-24T15:06:20;16.10;97.30
10848;DHT22;5477;48.806;9.154;2023-04-24T15:08:48;16.60;96.10
10848;DHT22;5477;48.806;9.154;2023-04-24T15:11:16;16.30;96.80
10848;DHT22;5477;48.806;9.154;2023-04-24T15:13:44;15.60;97.70
10848;DHT22;5477;48.806;9.154;2023-04-24T15:16:14;15.20;98.90
10848;DHT22;5477;48.806;9.154;2023-04-24T15:18:42;14.60;99.50
10848;DHT22;5477;48.806;9.154;2023-04-24T15:21:10;14.10;99.90
10848;DHT22;5477;48.806;9.154;2023-04-24T15:23:39;14.00;99.90
10848;DHT22;5477;48.806;9.154;2023-04-24T15:26:07;13.90;99.90
10848;DHT22;5477;48.806;9.154;2023-04-24T15:28:35;13.90;99.90
10848;DHT22;5477;48.806;9.154;2023-04-24T15:31:03;13.60;99.90
10848;DHT22;5477;48.806;9.154;2023-04-24T15:33:32;13.40;99.90
10848;DHT22;5477;48.806;9.154;2023-04-24T15:36:00;13.20;99.90
10848;DHT22;5477;48.806;9.154;2023-04-24T15:38:28;12.50;99.90
10848;DHT22;5477;48.806;9.154;2023-04-24T15:40:56;12.00;99.90
10848;DHT22;5477;48.806;9.154;2023-04-24T15:43:24;11.80;99.90
10848;DHT22;5477;48.806;9.154;2023-04-24T15:45:52;11.70;99.90
10848;DHT22;5477;48.806;9.154;2023-04-24T15:48:20;11.70;99.90
10848;DHT22;5477;48.806;9.154;2023-04-24T15:50:50;11.70;99.90
10848;DHT22;5477;48.806;9.154;2023-04-24T15:53:18;11.60;99.90
10848;DHT22;5477;48.806;9.154;2023-04-24T15:55:48;11.80;99.90
10848;DHT22;5477;48.806;9.154;2023-04-24T15:58:18;12.10;99.90
10848;DHT22;5477;48.806;9.154;2023-04-24T16:00:46;12.90;99.90